createdAt,value
2017-04-08T20:05:40.712Z,53.90
2017-04-08T20:06:41.232Z,53.90
2017-04-08T20:07:41.072Z,54.00
2017-04-08T20:08:40.888Z,53.90
2017-04-08T20:09:40.688Z,53.80
2017-04-08T20:10:40.476Z,53.90
2017-04-08T20:11:40.280Z,53.90
2017-04-08T20:12:40.076Z,53.90
2017-04-08T20:13:39.869Z,54.10
2017-04-08T20:14:39.628Z,54.00
2017-04-08T20:15:40.296Z,54.10
2017-04-08T20:16:40.052Z,54.20
2017-04-08T20:17:39.800Z,54.10
2017-04-08T20:18:39.568Z,54.10
2017-04-08T20:19:40.066Z,54.70
2017-04-08T20:20:39.876Z,54.20
2017-04-08T20:21:39.620Z,54.20
2017-04-08T20:22:39.353Z,54.20
2017-04-08T20:23:39.112Z,54.20
2017-04-08T20:24:39.088Z,54.30
2017-04-08T20:25:38.843Z,54.30
2017-04-08T20:26:38.551Z,54.30
2017-04-08T20:27:38.324Z,54.30
2017-04-08T20:28:38.244Z,54.30
2017-04-08T20:29:38.000Z,54.30
2017-04-08T20:30:38.515Z,54.20
2017-04-08T20:31:39.016Z,54.40
2017-04-08T20:32:38.767Z,54.30
2017-04-08T20:33:38.528Z,54.30
2017-04-08T20:34:38.299Z,54.40
2017-04-08T20:35:38.028Z,54.30
2017-04-08T20:36:37.796Z,54.40
2017-04-08T20:37:37.568Z,54.40
2017-04-08T20:38:37.367Z,54.50
2017-04-08T20:39:37.160Z,54.40
2017-04-08T20:40:36.937Z,54.50
2017-04-08T20:41:36.699Z,54.50
2017-04-08T20:42:36.475Z,54.50
2017-04-08T20:43:36.280Z,54.60
2017-04-08T20:44:36.047Z,54.50
2017-04-08T20:45:36.547Z,54.50
2017-04-08T20:46:36.287Z,54.50
2017-04-08T20:47:36.027Z,54.50
2017-04-08T20:48:35.777Z,54.60
2017-04-08T20:49:36.276Z,54.90
2017-04-08T20:50:36.064Z,54.60
2017-04-08T20:51:35.832Z,54.60
2017-04-08T20:52:35.636Z,54.60
2017-04-08T20:53:35.400Z,54.60
2017-04-08T20:54:35.148Z,54.60
2017-04-08T20:55:34.899Z,54.80
2017-04-08T20:56:35.377Z,54.70
2017-04-08T20:57:35.164Z,54.80
2017-04-08T20:58:34.935Z,54.70
2017-04-08T20:59:35.439Z,54.70
2017-04-08T21:00:35.164Z,54.80
2017-04-08T21:01:34.915Z,54.90
2017-04-08T21:02:34.676Z,54.80
2017-04-08T21:03:34.460Z,54.80
2017-04-08T21:04:34.267Z,54.70
2017-04-08T21:05:34.039Z,54.80
2017-04-08T21:06:33.775Z,54.70
2017-04-08T21:07:33.531Z,54.70
2017-04-08T21:08:33.293Z,54.60
2017-04-08T21:09:33.084Z,54.60
2017-04-08T21:10:32.831Z,54.60
2017-04-08T21:11:32.780Z,54.70
2017-04-08T21:12:32.520Z,54.60
2017-04-08T21:13:32.279Z,54.50
2017-04-08T21:14:32.031Z,54.60
2017-04-08T21:15:31.775Z,54.60
2017-04-08T21:16:31.519Z,54.60
2017-04-08T21:17:31.252Z,54.50
2017-04-08T21:18:31.747Z,54.90
2017-04-08T21:19:31.484Z,54.50
2017-04-08T21:20:31.218Z,55.10
2017-04-08T21:21:30.959Z,54.40
2017-04-08T21:22:30.703Z,54.30
2017-04-08T21:23:30.435Z,54.20
2017-04-08T21:24:30.679Z,54.20
2017-04-08T21:25:30.647Z,54.20
2017-04-08T21:26:30.420Z,54.20
2017-04-08T21:27:30.255Z,54.20
2017-04-08T21:28:29.976Z,54.00
2017-04-08T21:29:29.727Z,54.10
2017-04-08T21:30:29.435Z,54.00
2017-04-08T21:31:32.239Z,54.00
2017-04-08T21:32:32.183Z,54.00
2017-04-08T21:33:37.948Z,54.00
2017-04-08T21:34:44.183Z,54.00
2017-04-08T21:35:50.003Z,54.00
2017-04-08T21:36:55.659Z,54.00
2017-04-08T21:38:01.004Z,54.00
2017-04-08T21:39:07.235Z,54.00
2017-04-08T21:40:14.651Z,54.10
2017-04-08T21:41:20.835Z,54.60
2017-04-08T21:42:26.343Z,54.00
2017-04-08T21:43:31.835Z,54.00
2017-04-08T21:44:37.347Z,54.10
2017-04-08T21:45:42.791Z,54.00
2017-04-08T21:46:48.240Z,54.10
2017-04-08T21:47:55.515Z,54.20
2017-04-08T21:49:01.854Z,54.10
2017-04-08T21:50:02.067Z,54.20
2017-04-08T21:51:01.839Z,54.20
2017-04-08T21:52:01.599Z,54.20
2017-04-08T21:53:01.452Z,54.90
2017-04-08T21:54:01.203Z,54.30
2017-04-08T21:55:01.007Z,54.30
2017-04-08T21:56:00.779Z,54.40
2017-04-08T21:57:00.595Z,54.40
2017-04-08T21:58:01.075Z,54.40
2017-04-08T21:59:00.814Z,54.40
2017-04-08T22:00:00.534Z,54.40
2017-04-08T22:01:00.351Z,54.50
2017-04-08T22:02:00.151Z,54.50
2017-04-08T22:02:59.887Z,54.60
2017-04-08T22:03:59.594Z,54.60
2017-04-08T22:04:59.399Z,54.50
2017-04-08T22:05:59.891Z,54.60
2017-04-08T22:06:59.806Z,54.50
2017-04-08T22:07:59.558Z,54.50
2017-04-08T22:08:59.347Z,54.50
2017-04-08T22:09:59.138Z,54.50
2017-04-08T22:10:59.698Z,54.40
2017-04-08T22:11:59.422Z,54.40
2017-04-08T22:12:59.146Z,54.40
2017-04-08T22:13:59.654Z,54.40
2017-04-08T22:14:59.394Z,54.40
2017-04-08T22:15:59.206Z,54.40
2017-04-08T22:16:58.974Z,54.30
2017-04-08T22:17:58.734Z,54.30
2017-04-08T22:18:58.507Z,54.20
2017-04-08T22:19:58.262Z,54.10
2017-04-08T22:20:58.003Z,54.00
2017-04-08T22:21:57.750Z,54.60
2017-04-08T22:22:57.534Z,53.90
2017-04-08T22:23:57.324Z,54.00
2017-04-08T22:24:57.050Z,54.00
2017-04-08T22:25:56.796Z,53.90
2017-04-08T22:26:56.571Z,53.90
2017-04-08T22:27:56.306Z,53.90
2017-04-08T22:28:56.062Z,53.90
2017-04-08T22:29:55.839Z,53.90
2017-04-08T22:30:55.650Z,53.90
2017-04-08T22:31:55.394Z,53.80
2017-04-08T22:32:55.895Z,53.90
2017-04-08T22:33:56.451Z,53.90
2017-04-08T22:34:56.233Z,53.90
2017-04-08T22:35:56.714Z,53.90
2017-04-08T22:36:56.983Z,53.90
2017-04-08T22:37:56.722Z,53.90
2017-04-08T22:38:56.522Z,54.00
2017-04-08T22:39:56.395Z,54.00
2017-04-08T22:40:56.919Z,53.90
2017-04-08T22:41:56.734Z,54.00
2017-04-08T22:42:56.583Z,54.00
2017-04-08T22:43:57.063Z,54.00
2017-04-08T22:44:56.810Z,54.00
2017-04-08T22:45:57.324Z,54.00
2017-04-08T22:46:57.850Z,54.00
2017-04-08T22:47:57.654Z,54.00
2017-04-08T22:48:58.143Z,54.10
2017-04-08T22:50:57.882Z,54.10
2017-04-08T22:51:57.615Z,54.20
2017-04-08T22:52:57.376Z,54.20
2017-04-08T22:53:57.078Z,54.20
2017-04-08T22:54:57.558Z,54.20
2017-04-08T22:55:57.346Z,54.20
2017-04-08T22:56:57.082Z,54.20
2017-04-08T22:57:56.866Z,54.20
2017-04-08T22:58:56.583Z,54.30
2017-04-08T22:59:57.082Z,54.40
2017-04-08T23:00:56.894Z,54.30
2017-04-08T23:01:56.710Z,54.30
2017-04-08T23:02:57.254Z,54.20
2017-04-08T23:03:57.006Z,54.40
2017-04-08T23:04:56.754Z,54.30
2017-04-08T23:05:56.502Z,54.30
2017-04-08T23:06:56.237Z,54.30
2017-04-08T23:07:56.730Z,54.30
2017-04-08T23:08:56.470Z,54.30
2017-04-08T23:09:56.229Z,54.40
2017-04-08T23:10:55.970Z,54.40
2017-04-08T23:11:55.703Z,54.50
2017-04-08T23:12:55.498Z,54.40
2017-04-08T23:13:55.267Z,54.40
2017-04-08T23:14:55.766Z,54.40
2017-04-08T23:15:55.466Z,54.60
2017-04-08T23:16:55.966Z,54.40
2017-04-08T23:17:55.701Z,54.50
2017-04-08T23:18:55.502Z,54.40
2017-04-08T23:19:55.241Z,54.50
2017-04-08T23:20:54.990Z,54.50
2017-04-08T23:21:55.457Z,54.50
2017-04-08T23:22:55.183Z,54.60
2017-04-08T23:23:54.957Z,54.50
2017-04-08T23:24:55.434Z,54.50
2017-04-08T23:25:55.158Z,54.50
2017-04-08T23:26:54.858Z,54.50
2017-04-08T23:27:54.586Z,54.50
2017-04-08T23:28:54.377Z,54.60
2017-04-08T23:29:54.109Z,54.60
2017-04-08T23:30:53.825Z,54.60
2017-04-08T23:31:53.562Z,54.60
2017-04-08T23:32:53.305Z,54.60
2017-04-08T23:33:53.093Z,54.60
2017-04-08T23:34:57.638Z,54.60
2017-04-08T23:35:57.692Z,55.10
2017-04-08T23:36:57.413Z,54.70
2017-04-08T23:37:57.122Z,54.80
2017-04-08T23:38:56.922Z,54.80
2017-04-08T23:39:56.626Z,54.80
2017-04-08T23:40:56.413Z,54.80
2017-04-08T23:41:56.174Z,54.70
2017-04-08T23:42:55.922Z,54.80
2017-04-08T23:43:55.669Z,54.80
2017-04-08T23:44:55.405Z,54.80
2017-04-08T23:45:55.154Z,54.80
2017-04-08T23:46:55.621Z,54.80
2017-04-08T23:47:55.359Z,54.80
2017-04-08T23:48:55.094Z,54.80
2017-04-08T23:49:54.829Z,54.80
2017-04-08T23:50:54.601Z,54.80
2017-04-08T23:51:55.122Z,54.80
2017-04-08T23:52:54.861Z,54.90
2017-04-08T23:53:54.654Z,54.80
2017-04-08T23:54:54.409Z,54.90
2017-04-08T23:55:54.154Z,54.90
2017-04-08T23:56:53.905Z,54.90
2017-04-08T23:57:53.678Z,54.90
2017-04-08T23:58:53.401Z,54.90
2017-04-08T23:59:53.973Z,55.00
